createdAt,value
2018-10-17T00:02:06.129Z,10.99
2018-10-17T00:04:35.280Z,10.99
2018-10-17T00:07:04.937Z,10.97
2018-10-17T00:09:34.402Z,10.97
2018-10-17T00:12:03.688Z,10.96
2018-10-17T00:14:33.716Z,10.90
2018-10-17T00:17:03.362Z,10.93
2018-10-17T00:19:33.217Z,10.93
2018-10-17T00:22:02.332Z,10.93
2018-10-17T00:24:31.921Z,10.92
2018-10-17T00:27:01.080Z,10.88
2018-10-17T00:29:30.332Z,10.83
2018-10-17T00:32:00.841Z,10.88
2018-10-17T00:34:29.960Z,10.88
2018-10-17T00:36:59.139Z,10.86
2018-10-17T00:39:28.649Z,10.76
2018-10-17T00:41:57.762Z,10.74
2018-10-17T00:44:27.103Z,10.80
2018-10-17T00:46:56.861Z,10.74
2018-10-17T00:49:25.989Z,10.74
2018-10-17T00:51:55.116Z,10.75
2018-10-17T00:54:24.755Z,10.77
2018-10-17T00:56:54.253Z,10.81
2018-10-17T00:59:23.449Z,10.81
2018-10-17T01:01:53.060Z,10.87
2018-10-17T01:04:22.260Z,10.89
2018-10-17T01:06:52.267Z,10.92
2018-10-17T01:09:21.683Z,10.89
2018-10-17T01:11:50.853Z,10.93
2018-10-17T01:14:19.964Z,10.95
2018-10-17T01:16:49.609Z,10.97
2018-10-17T01:19:18.908Z,10.97
2018-10-17T01:21:48.069Z,10.98
2018-10-17T01:24:17.630Z,10.96
2018-10-17T01:26:46.782Z,10.99
2018-10-17T01:29:15.976Z,11.02
2018-10-17T01:31:45.685Z,11.01
2018-10-17T01:34:14.873Z,11.03
2018-10-17T01:36:44.144Z,11.06
2018-10-17T01:39:13.586Z,11.05
2018-10-17T01:41:42.684Z,11.04
2018-10-17T01:44:11.878Z,11.07
2018-10-17T01:46:41.480Z,11.11
2018-10-17T01:49:10.632Z,11.11
2018-10-17T01:51:39.909Z,11.14
2018-10-17T01:54:09.481Z,11.16
2018-10-17T01:56:39.420Z,11.15
2018-10-17T01:59:08.724Z,11.17
2018-10-17T02:01:38.355Z,11.10
2018-10-17T02:04:07.722Z,11.07
2018-10-17T02:06:37.042Z,11.08
2018-10-17T02:09:08.664Z,11.07
2018-10-17T02:11:38.422Z,11.03
2018-10-17T02:14:07.709Z,11.05
2018-10-17T02:16:37.276Z,11.07
2018-10-17T02:19:06.551Z,11.10
2018-10-17T02:21:35.686Z,11.11
2018-10-17T02:24:05.592Z,11.11
2018-10-17T02:26:34.888Z,11.12
2018-10-17T02:29:04.030Z,11.11
2018-10-17T02:31:33.592Z,11.11
2018-10-17T02:34:02.722Z,11.07
2018-10-17T02:36:31.885Z,11.05
2018-10-17T02:39:01.603Z,10.95
2018-10-17T02:41:30.707Z,10.93
2018-10-17T02:43:59.988Z,10.90
2018-10-17T02:46:29.592Z,10.95
2018-10-17T02:48:58.936Z,10.97
2018-10-17T02:51:28.850Z,11.01
2018-10-17T02:53:58.748Z,11.04
2018-10-17T02:56:27.998Z,11.01
2018-10-17T02:58:57.199Z,10.97
2018-10-17T03:01:26.729Z,10.97
2018-10-17T03:03:55.929Z,11.03
2018-10-17T03:06:25.257Z,11.04
2018-10-17T03:08:54.769Z,11.10
2018-10-17T03:11:23.979Z,11.15
2018-10-17T03:13:53.134Z,11.20
2018-10-17T03:16:22.645Z,11.24
2018-10-17T03:18:51.965Z,11.27
2018-10-17T03:21:21.208Z,11.27
2018-10-17T03:23:50.802Z,11.34
2018-10-17T03:26:20.009Z,11.35
2018-10-17T03:28:49.374Z,11.36
2018-10-17T03:31:19.026Z,11.36
2018-10-17T03:33:49.505Z,11.44
2018-10-17T03:36:18.629Z,11.48
2018-10-17T03:38:48.178Z,11.55
2018-10-17T03:41:17.453Z,11.53
2018-10-17T03:43:46.719Z,11.46
2018-10-17T03:46:16.181Z,11.42
2018-10-17T03:48:45.511Z,11.44
2018-10-17T03:51:14.752Z,11.43
2018-10-17T03:53:43.890Z,11.41
2018-10-17T03:56:13.247Z,11.43
2018-10-17T03:58:42.497Z,11.44
2018-10-17T04:01:12.334Z,11.46
2018-10-17T04:03:41.736Z,11.48
2018-10-17T04:06:11.666Z,11.49
2018-10-17T04:08:41.205Z,11.50
2018-10-17T04:11:10.454Z,11.54
2018-10-17T04:13:40.562Z,11.53
2018-10-17T04:16:10.093Z,11.57
2018-10-17T04:18:39.230Z,11.60
2018-10-17T04:21:08.598Z,11.57
2018-10-17T04:23:38.237Z,11.59
2018-10-17T04:26:07.651Z,11.61
2018-10-17T04:28:36.854Z,11.53
2018-10-17T04:31:06.503Z,11.52
2018-10-17T04:33:35.914Z,11.42
2018-10-17T04:36:05.248Z,11.46
2018-10-17T04:38:34.853Z,11.48
2018-10-17T04:41:04.118Z,11.49
2018-10-17T04:43:33.365Z,11.44
2018-10-17T04:46:02.965Z,11.41
2018-10-17T04:48:32.429Z,11.42
2018-10-17T04:51:01.804Z,11.41
2018-10-17T04:53:31.301Z,11.44
2018-10-17T04:56:01.025Z,11.49
2018-10-17T04:58:30.152Z,11.52
2018-10-17T05:00:59.742Z,11.54
2018-10-17T05:03:28.846Z,11.54
2018-10-17T05:05:58.141Z,11.56
2018-10-17T05:08:27.586Z,11.51
2018-10-17T05:10:56.938Z,11.55
2018-10-17T05:13:26.729Z,11.56
2018-10-17T05:15:57.008Z,11.60
2018-10-17T05:18:26.309Z,11.62
2018-10-17T05:20:56.176Z,11.65
2018-10-17T05:23:25.338Z,11.66
2018-10-17T05:25:54.829Z,11.67
2018-10-17T05:28:24.647Z,11.66
2018-10-17T05:30:53.808Z,11.68
2018-10-17T05:33:22.990Z,11.72
2018-10-17T05:35:52.546Z,11.76
2018-10-17T05:38:21.961Z,11.78
2018-10-17T05:40:51.184Z,11.81
2018-10-17T05:43:20.378Z,11.84
2018-10-17T05:45:49.505Z,11.86
2018-10-17T05:48:18.646Z,11.86
2018-10-17T05:50:47.834Z,11.81
2018-10-17T05:53:17.061Z,11.68
2018-10-17T05:55:46.397Z,11.78
2018-10-17T05:58:15.865Z,11.70
2018-10-17T06:00:45.012Z,11.75
2018-10-17T06:03:14.133Z,11.79
2018-10-17T06:05:43.269Z,11.82
2018-10-17T06:08:12.441Z,11.85
2018-10-17T06:10:41.709Z,11.88
2018-10-17T06:13:11.435Z,11.96
2018-10-17T06:15:40.557Z,12.00
2018-10-17T06:18:09.758Z,12.02
2018-10-17T06:20:39.331Z,12.02
2018-10-17T06:23:08.588Z,12.04
2018-10-17T06:25:37.758Z,12.11
2018-10-17T06:28:07.271Z,12.19
2018-10-17T06:30:36.425Z,12.29
2018-10-17T06:33:05.741Z,12.31
2018-10-17T06:35:34.961Z,12.40
2018-10-17T06:38:04.101Z,12.43
2018-10-17T06:40:33.329Z,12.51
2018-10-17T06:43:02.990Z,12.47
2018-10-17T06:45:32.158Z,12.51
2018-10-17T06:48:01.331Z,12.41
2018-10-17T06:50:30.874Z,12.41
2018-10-17T06:53:00.049Z,12.43
2018-10-17T06:55:29.181Z,12.42
2018-10-17T06:57:58.334Z,12.46
2018-10-17T07:00:27.467Z,12.51
2018-10-17T07:02:57.315Z,12.51
2018-10-17T07:05:26.933Z,12.57
2018-10-17T07:07:56.214Z,12.62
2018-10-17T07:10:25.771Z,12.65
2018-10-17T07:12:55.040Z,12.65
2018-10-17T07:15:24.175Z,12.71
2018-10-17T07:17:53.273Z,12.67
2018-10-17T07:20:22.450Z,12.69
2018-10-17T07:22:51.652Z,12.71
2018-10-17T07:25:20.847Z,12.69
2018-10-17T07:27:50.050Z,12.70
2018-10-17T07:30:19.390Z,12.75
2018-10-17T07:32:48.625Z,12.80
2018-10-17T07:35:18.657Z,12.77
2018-10-17T07:37:48.170Z,12.82
2018-10-17T07:40:17.334Z,12.96
2018-10-17T07:42:46.570Z,13.01
2018-10-17T07:45:15.779Z,13.05
2018-10-17T07:47:45.040Z,13.16
2018-10-17T07:50:14.641Z,12.91
2018-10-17T07:52:44.045Z,13.31
2018-10-17T07:55:13.276Z,13.42
2018-10-17T07:57:42.494Z,13.49
2018-10-17T08:00:13.343Z,13.56
2018-10-17T08:02:42.506Z,13.63
2018-10-17T08:05:11.702Z,13.62
2018-10-17T08:07:41.493Z,13.72
2018-10-17T08:10:11.397Z,13.82
2018-10-17T08:12:40.929Z,13.87
2018-10-17T08:15:10.777Z,13.93
2018-10-17T08:17:40.002Z,13.92
2018-10-17T08:20:11.159Z,14.06
2018-10-17T08:22:40.546Z,14.09
2018-10-17T08:25:11.225Z,14.13
2018-10-17T08:27:40.558Z,14.23
2018-10-17T08:30:10.854Z,14.29
2018-10-17T08:32:40.823Z,14.35
2018-10-17T08:35:10.027Z,14.40
2018-10-17T08:37:39.617Z,14.42
2018-10-17T08:40:08.491Z,14.21
2018-10-17T08:42:37.715Z,14.47
2018-10-17T08:45:07.081Z,14.52
2018-10-17T08:47:36.162Z,14.60
2018-10-17T08:50:05.602Z,14.65
2018-10-17T08:52:35.097Z,14.65
2018-10-17T08:55:04.490Z,14.79
2018-10-17T08:57:33.726Z,14.87
2018-10-17T09:00:02.874Z,15.00
2018-10-17T09:02:32.022Z,15.06
2018-10-17T09:05:01.138Z,15.08
2018-10-17T09:07:30.335Z,15.16
2018-10-17T09:10:00.242Z,15.08
2018-10-17T09:12:29.675Z,15.14
2018-10-17T09:14:58.855Z,15.17
2018-10-17T09:17:28.013Z,15.29
2018-10-17T09:19:57.514Z,15.31
2018-10-17T09:22:26.720Z,15.59
2018-10-17T09:24:55.778Z,15.71
2018-10-17T09:27:25.019Z,15.83
2018-10-17T09:29:54.398Z,15.89
2018-10-17T09:32:23.650Z,16.02
2018-10-17T09:34:52.992Z,16.09
2018-10-17T09:37:22.241Z,16.16
2018-10-17T09:39:51.479Z,16.21
2018-10-17T09:42:20.851Z,16.20
2018-10-17T09:44:49.933Z,16.31
2018-10-17T09:47:19.205Z,16.39
2018-10-17T09:49:48.389Z,16.46
2018-10-17T09:52:17.849Z,16.50
2018-10-17T09:54:46.910Z,16.54
2018-10-17T09:57:16.077Z,16.52
2018-10-17T09:59:45.313Z,16.45
2018-10-17T10:02:14.918Z,16.54
2018-10-17T10:04:44.118Z,16.49
2018-10-17T10:07:14.022Z,16.32
2018-10-17T10:09:43.245Z,16.53
2018-10-17T10:12:12.560Z,16.52
2018-10-17T10:14:41.682Z,16.46
2018-10-17T10:17:10.954Z,16.45
2018-10-17T10:19:40.145Z,16.57
2018-10-17T10:22:10.157Z,16.58
2018-10-17T10:24:39.375Z,16.61
2018-10-17T10:27:08.557Z,16.57
2018-10-17T10:29:37.808Z,16.63
2018-10-17T10:32:06.978Z,16.70
2018-10-17T10:34:36.089Z,16.71
2018-10-17T10:37:05.546Z,16.78
2018-10-17T10:39:34.764Z,16.79
2018-10-17T10:42:03.932Z,16.77
2018-10-17T10:44:33.034Z,16.79
2018-10-17T10:47:02.254Z,16.90
2018-10-17T10:49:31.517Z,16.91
2018-10-17T10:52:00.934Z,16.91
2018-10-17T10:54:30.205Z,16.86
2018-10-17T10:56:59.410Z,17.02
2018-10-17T10:59:28.889Z,17.01
2018-10-17T11:01:58.640Z,17.11
2018-10-17T11:04:27.824Z,17.17
2018-10-17T11:06:57.169Z,17.15
2018-10-17T11:09:26.352Z,17.24
2018-10-17T11:11:55.507Z,17.29
2018-10-17T11:14:24.859Z,17.31
2018-10-17T11:16:54.581Z,17.33
2018-10-17T11:19:23.774Z,17.31
2018-10-17T11:21:52.995Z,17.36
2018-10-17T11:24:22.184Z,17.51
2018-10-17T11:26:52.044Z,17.58
2018-10-17T11:29:21.417Z,17.65
2018-10-17T11:31:51.086Z,17.73
2018-10-17T11:34:21.340Z,17.79
2018-10-17T11:36:50.416Z,17.84
2018-10-17T11:39:20.265Z,17.90
2018-10-17T11:41:49.994Z,17.93
2018-10-17T11:44:19.189Z,18.00
2018-10-17T11:46:48.581Z,18.05
2018-10-17T11:49:17.845Z,18.07
2018-10-17T11:51:46.997Z,18.26
2018-10-17T11:54:16.589Z,18.36
2018-10-17T11:56:45.697Z,18.46
2018-10-17T11:59:14.997Z,18.64
2018-10-17T12:01:44.219Z,18.74
2018-10-17T12:04:13.925Z,18.91
2018-10-17T12:06:42.853Z,18.90
2018-10-17T12:09:12.273Z,18.99
2018-10-17T12:11:42.179Z,19.08
2018-10-17T12:14:11.348Z,19.17
2018-10-17T12:16:41.926Z,19.31
2018-10-17T12:19:11.556Z,19.48
2018-10-17T12:21:40.683Z,19.61
2018-10-17T12:24:10.186Z,19.71
2018-10-17T12:26:39.337Z,19.76
2018-10-17T12:29:08.553Z,19.75
2018-10-17T12:31:38.470Z,19.73
2018-10-17T12:34:07.893Z,19.84
2018-10-17T12:36:37.073Z,19.91
2018-10-17T12:39:10.032Z,20.06
2018-10-17T12:41:39.247Z,20.21
2018-10-17T12:44:08.610Z,20.22
2018-10-17T12:46:38.166Z,20.27
2018-10-17T12:49:07.612Z,20.19
2018-10-17T12:51:37.072Z,20.24
2018-10-17T12:54:06.717Z,20.22
2018-10-17T12:56:36.655Z,20.15
2018-10-17T12:59:06.565Z,20.04
2018-10-17T13:01:36.181Z,20.03
2018-10-17T13:04:05.709Z,20.12
2018-10-17T13:06:34.842Z,20.21
2018-10-17T13:09:05.162Z,20.28
2018-10-17T13:11:34.370Z,20.15
2018-10-17T13:14:04.123Z,20.18
2018-10-17T13:16:33.313Z,20.17
2018-10-17T13:19:02.905Z,20.23
2018-10-17T13:21:32.185Z,20.25
2018-10-17T13:24:01.412Z,20.21
2018-10-17T13:26:30.521Z,20.13
2018-10-17T13:28:59.804Z,20.00
2018-10-17T13:31:29.521Z,19.95
2018-10-17T13:33:58.720Z,19.67
2018-10-17T13:36:27.875Z,19.66
2018-10-17T13:38:57.522Z,19.38
2018-10-17T13:41:26.837Z,19.34
2018-10-17T13:43:56.200Z,19.18
2018-10-17T13:46:25.345Z,19.12
2018-10-17T13:48:54.904Z,18.91
2018-10-17T13:51:24.038Z,18.98
2018-10-17T13:53:53.369Z,19.02
2018-10-17T13:56:22.742Z,18.89
2018-10-17T13:58:52.006Z,18.71
2018-10-17T14:01:22.143Z,18.75
2018-10-17T14:03:52.526Z,18.68
2018-10-17T14:06:21.917Z,18.67
2018-10-17T14:08:51.207Z,18.44
2018-10-17T14:11:20.534Z,18.49
2018-10-17T14:13:49.921Z,18.49
2018-10-17T14:16:19.661Z,18.48
2018-10-17T14:18:49.827Z,18.35
2018-10-17T14:21:19.188Z,18.29
2018-10-17T14:23:48.319Z,18.20
2018-10-17T14:26:17.502Z,18.00
2018-10-17T14:28:47.002Z,17.91
2018-10-17T14:31:17.062Z,17.97
2018-10-17T14:33:46.249Z,17.94
2018-10-17T14:36:15.559Z,17.92
2018-10-17T14:38:45.376Z,17.79
2018-10-17T14:41:14.574Z,17.78
2018-10-17T14:43:44.346Z,17.71
2018-10-17T14:46:13.557Z,17.62
2018-10-17T14:48:42.737Z,17.68
2018-10-17T14:51:12.163Z,17.68
2018-10-17T14:53:41.340Z,17.55
2018-10-17T14:56:10.704Z,17.45
2018-10-17T14:58:39.982Z,17.50
2018-10-17T15:01:09.255Z,17.49
2018-10-17T15:03:38.479Z,17.26
2018-10-17T15:06:07.637Z,17.21
2018-10-17T15:08:36.753Z,17.23
2018-10-17T15:11:06.191Z,17.22
2018-10-17T15:13:35.634Z,17.13
2018-10-17T15:16:04.837Z,17.18
2018-10-17T15:18:34.021Z,17.20
2018-10-17T15:21:04.202Z,17.10
2018-10-17T15:23:34.173Z,17.17
2018-10-17T15:26:04.069Z,17.13
2018-10-17T15:28:33.673Z,17.10
2018-10-17T15:31:02.965Z,17.13
2018-10-17T15:33:32.141Z,17.12
2018-10-17T15:36:01.579Z,17.16
2018-10-17T15:38:30.942Z,17.17
2018-10-17T15:41:00.430Z,17.17
2018-10-17T15:43:30.096Z,17.17
2018-10-17T15:45:59.313Z,17.20
2018-10-17T15:48:28.453Z,17.16
2018-10-17T15:50:58.356Z,17.07
2018-10-17T15:53:27.535Z,17.01
2018-10-17T15:55:58.853Z,16.94
2018-10-17T15:58:28.163Z,16.68
2018-10-17T16:00:57.472Z,16.74
2018-10-17T16:03:26.811Z,16.54
2018-10-17T16:05:56.426Z,16.64
2018-10-17T16:08:25.628Z,16.60
2018-10-17T16:10:55.877Z,16.57
2018-10-17T16:13:26.461Z,16.51
2018-10-17T16:15:55.625Z,16.46
2018-10-17T16:18:25.811Z,16.40
2018-10-17T16:20:54.963Z,16.32
2018-10-17T16:23:24.655Z,16.30
2018-10-17T16:25:53.944Z,16.28
2018-10-17T16:28:23.323Z,16.24
2018-10-17T16:30:53.005Z,16.22
2018-10-17T16:33:22.285Z,16.16
2018-10-17T16:35:51.590Z,16.06
2018-10-17T16:38:20.965Z,16.04
2018-10-17T16:40:50.202Z,16.00
2018-10-17T16:43:19.514Z,15.96
2018-10-17T16:45:48.780Z,15.93
2018-10-17T16:48:18.697Z,15.91
2018-10-17T16:50:47.951Z,15.80
2018-10-17T16:53:17.399Z,15.73
2018-10-17T16:55:47.321Z,15.65
2018-10-17T16:58:16.571Z,15.57
2018-10-17T17:00:45.673Z,15.49
2018-10-17T17:03:14.894Z,15.42
2018-10-17T17:05:44.216Z,15.36
2018-10-17T17:08:13.722Z,15.31
2018-10-17T17:10:43.330Z,15.27
2018-10-17T17:13:12.569Z,15.18
2018-10-17T17:15:42.245Z,15.16
2018-10-17T17:18:11.425Z,15.10
2018-10-17T17:20:40.590Z,15.08
2018-10-17T17:23:09.815Z,15.02
2018-10-17T17:25:38.988Z,14.96
2018-10-17T17:28:08.297Z,14.88
2018-10-17T17:30:37.445Z,14.86
2018-10-17T17:33:06.666Z,14.80
2018-10-17T17:35:35.916Z,14.72
2018-10-17T17:38:05.467Z,14.69
2018-10-17T17:40:34.629Z,14.64
2018-10-17T17:43:04.176Z,14.61
2018-10-17T17:45:34.258Z,14.57
2018-10-17T17:48:03.481Z,14.53
2018-10-17T17:50:33.363Z,14.47
2018-10-17T17:53:03.682Z,14.41
2018-10-17T17:55:33.610Z,14.40
2018-10-17T17:58:03.846Z,14.36
2018-10-17T18:00:33.674Z,14.34
2018-10-17T18:03:04.131Z,14.30
2018-10-17T18:05:34.652Z,14.26
2018-10-17T18:08:04.693Z,14.24
2018-10-17T18:10:34.606Z,14.23
2018-10-17T18:13:04.406Z,14.20
2018-10-17T18:15:34.652Z,14.16
2018-10-17T18:18:05.333Z,14.16
2018-10-17T18:20:34.583Z,14.13
2018-10-17T18:23:03.788Z,14.13
2018-10-17T18:25:33.236Z,14.10
2018-10-17T18:28:02.856Z,14.10
2018-10-17T18:30:32.189Z,14.08
2018-10-17T18:33:01.706Z,14.05
2018-10-17T18:35:31.325Z,14.01
2018-10-17T18:38:01.697Z,13.95
2018-10-17T18:40:30.953Z,13.96
2018-10-17T18:43:00.434Z,13.95
2018-10-17T18:45:31.715Z,13.90
2018-10-17T18:48:00.866Z,13.92
2018-10-17T18:50:30.094Z,13.92
2018-10-17T18:53:01.136Z,13.86
2018-10-17T18:55:30.565Z,13.88
2018-10-17T18:58:00.001Z,13.85
2018-10-17T19:00:30.171Z,13.87
2018-10-17T19:02:59.442Z,13.77
2018-10-17T19:05:28.956Z,13.77
2018-10-17T19:07:58.421Z,13.81
2018-10-17T19:10:28.226Z,13.79
2018-10-17T19:12:58.070Z,13.63
2018-10-17T19:15:27.204Z,13.77
2018-10-17T19:17:57.048Z,13.76
2018-10-17T19:20:26.666Z,13.75
2018-10-17T19:22:56.922Z,13.74
2018-10-17T19:25:26.562Z,13.75
2018-10-17T19:27:55.801Z,13.76
2018-10-17T19:30:27.478Z,13.71
2018-10-17T19:32:57.417Z,13.71
2018-10-17T19:35:27.098Z,13.69
2018-10-17T19:37:56.949Z,13.55
2018-10-17T19:40:26.373Z,13.53
2018-10-17T19:42:55.509Z,13.55
2018-10-17T19:45:25.490Z,13.55
2018-10-17T19:47:54.692Z,13.54
2018-10-17T19:50:23.908Z,13.52
2018-10-17T19:52:53.081Z,13.52
2018-10-17T19:55:22.384Z,13.53
2018-10-17T19:57:51.604Z,13.53
2018-10-17T20:00:20.934Z,13.54
2018-10-17T20:02:50.091Z,13.52
2018-10-17T20:05:19.725Z,13.54
2018-10-17T20:07:48.952Z,13.53
2018-10-17T20:10:18.138Z,13.53
2018-10-17T20:12:47.986Z,13.48
2018-10-17T20:15:17.339Z,13.45
2018-10-17T20:17:46.466Z,13.48
2018-10-17T20:20:15.989Z,13.47
2018-10-17T20:22:45.131Z,13.48
2018-10-17T20:25:14.461Z,13.48
2018-10-17T20:27:43.885Z,13.47
2018-10-17T20:30:12.997Z,13.45
2018-10-17T20:32:42.103Z,13.44
2018-10-17T20:35:11.374Z,13.43
2018-10-17T20:37:40.825Z,13.40
2018-10-17T20:40:09.973Z,13.38
2018-10-17T20:42:39.241Z,13.34
2018-10-17T20:45:09.085Z,13.25
2018-10-17T20:47:38.250Z,13.29
2018-10-17T20:50:07.917Z,13.29
2018-10-17T20:52:37.077Z,13.29
2018-10-17T20:55:06.777Z,13.28
2018-10-17T20:57:36.921Z,13.27
2018-10-17T21:00:06.854Z,13.21
2018-10-17T21:02:36.083Z,13.20
2018-10-17T21:05:06.227Z,13.18
2018-10-17T21:07:36.309Z,13.16
2018-10-17T21:10:06.958Z,13.13
2018-10-17T21:12:36.373Z,13.16
2018-10-17T21:15:06.724Z,13.14
2018-10-17T21:17:35.949Z,13.12
2018-10-17T21:20:05.173Z,13.12
2018-10-17T21:22:34.339Z,13.10
2018-10-17T21:25:03.749Z,13.10
2018-10-17T21:27:34.200Z,13.07
2018-10-17T21:30:04.192Z,13.09
2018-10-17T21:32:33.417Z,13.02
2018-10-17T21:35:02.557Z,13.03
2018-10-17T21:37:31.983Z,13.04
2018-10-17T21:40:01.521Z,12.94
2018-10-17T21:42:31.316Z,12.96
2018-10-17T21:45:00.506Z,12.92
2018-10-17T21:47:29.752Z,12.98
2018-10-17T21:49:59.220Z,13.01
2018-10-17T21:52:28.427Z,13.05
2018-10-17T21:54:57.885Z,13.07
2018-10-17T21:57:27.097Z,13.11
2018-10-17T21:59:56.205Z,13.11
2018-10-17T22:02:25.353Z,13.09
2018-10-17T22:04:54.496Z,13.12
2018-10-17T22:07:24.201Z,13.07
2018-10-17T22:09:53.819Z,12.96
2018-10-17T22:12:23.035Z,12.94
2018-10-17T22:14:52.147Z,12.93
2018-10-17T22:17:26.719Z,12.91
2018-10-17T22:19:56.350Z,12.91
2018-10-17T22:22:26.207Z,12.90
2018-10-17T22:24:56.209Z,12.91
2018-10-17T22:27:25.337Z,12.89
2018-10-17T22:29:54.611Z,12.86
2018-10-17T22:32:23.969Z,12.82
2018-10-17T22:34:53.206Z,12.82
2018-10-17T22:37:22.339Z,12.82
2018-10-17T22:39:51.924Z,12.78
2018-10-17T22:42:21.312Z,12.78
2018-10-17T22:44:50.434Z,12.80
2018-10-17T22:47:19.988Z,12.72
2018-10-17T22:49:49.129Z,12.76
2018-10-17T22:52:18.244Z,12.86
2018-10-17T22:54:47.741Z,12.94
2018-10-17T22:57:16.865Z,13.03
2018-10-17T22:59:46.141Z,13.06
2018-10-17T23:02:15.655Z,13.16
2018-10-17T23:04:44.830Z,13.27
2018-10-17T23:07:14.000Z,13.35
2018-10-17T23:09:43.271Z,13.45
2018-10-17T23:12:12.477Z,13.49
2018-10-17T23:14:41.654Z,13.60
2018-10-17T23:17:11.237Z,13.70
2018-10-17T23:19:40.360Z,13.78
2018-10-17T23:22:09.574Z,13.82
2018-10-17T23:24:38.751Z,13.90
2018-10-17T23:27:08.058Z,13.96
2018-10-17T23:29:37.233Z,14.03
2018-10-17T23:32:06.823Z,14.07
2018-10-17T23:34:35.941Z,14.12
2018-10-17T23:37:05.225Z,14.15
2018-10-17T23:39:34.838Z,14.20
2018-10-17T23:42:04.048Z,14.22
2018-10-17T23:44:33.273Z,14.27
2018-10-17T23:47:03.549Z,14.32
2018-10-17T23:49:32.853Z,14.35
2018-10-17T23:52:02.150Z,14.34
2018-10-17T23:54:31.478Z,14.38
2018-10-17T23:57:00.653Z,14.44
2018-10-17T23:59:30.633Z,14.43
